UAL2497 KEWR-KBGR
Flight info
| Callsign | UAL2497 |
|---|---|
| Flight time | 1h 1m |
| Altitude | 33000 |
| Route | MERIT HFD PUT ENE |
| Aircraft | B738/M-SDE2E3FGHIRWXY/LB1 |
Departure
| Time | 2026-04-30 20:42 |
|---|---|
| Airport | Newark Liberty International Airport (KEWR) |
Arrival
| Time | 2026-04-30 21:43 |
|---|---|
| Airport | Bangor International Airport (KBGR) |
| Time | Latitude | Longitude | Altitude | Speed | Heading |
|---|---|---|---|---|---|
| 2026-04-30 20:09 | 40.68645 | -74.18514 | 20 ft | 0 kts | 343° |
| 2026-04-30 20:28 | 40.68599 | -74.18499 | 20 ft | 4 kts | 349° |
| 2026-04-30 20:29 | 40.68546 | -74.18496 | 21 ft | 4 kts | 25° |
| 2026-04-30 20:30 | 40.68548 | -74.18553 | 24 ft | 1 kts | 115° |
| 2026-04-30 20:33 | 40.68544 | -74.18542 | 21 ft | 3 kts | 115° |
| 2026-04-30 20:33 | 40.68530 | -74.18487 | 21 ft | 10 kts | 102° |
| 2026-04-30 20:34 | 40.68458 | -74.18276 | 19 ft | 13 kts | 120° |
| 2026-04-30 20:34 | 40.68460 | -74.18059 | 19 ft | 13 kts | 70° |
| 2026-04-30 20:35 | 40.68492 | -74.17928 | 19 ft | 18 kts | 71° |
| 2026-04-30 20:35 | 40.68568 | -74.17799 | 21 ft | 18 kts | 33° |
| 2026-04-30 20:35 | 40.68615 | -74.17607 | 22 ft | 13 kts | 116° |
| 2026-04-30 20:36 | 40.68578 | -74.17505 | 27 ft | 12 kts | 109° |
| 2026-04-30 20:36 | 40.68617 | -74.17419 | 30 ft | 12 kts | 27° |
| 2026-04-30 20:36 | 40.68811 | -74.17295 | 22 ft | 21 kts | 25° |
| 2026-04-30 20:37 | 40.68961 | -74.17201 | 18 ft | 26 kts | 26° |
| 2026-04-30 20:37 | 40.69127 | -74.17095 | 17 ft | 25 kts | 26° |
| 2026-04-30 20:37 | 40.69281 | -74.16998 | 19 ft | 24 kts | 25° |
| 2026-04-30 20:37 | 40.69425 | -74.16905 | 22 ft | 23 kts | 26° |
| 2026-04-30 20:38 | 40.69565 | -74.16817 | 19 ft | 22 kts | 26° |
| 2026-04-30 20:38 | 40.69701 | -74.16730 | 17 ft | 21 kts | 26° |
| 2026-04-30 20:38 | 40.69833 | -74.16646 | 14 ft | 21 kts | 26° |
| 2026-04-30 20:39 | 40.70043 | -74.16512 | 14 ft | 7 kts | 25° |
| 2026-04-30 20:39 | 40.70052 | -74.16507 | 14 ft | 0 kts | 26° |
| 2026-04-30 20:40 | 40.70062 | -74.16494 | 14 ft | 4 kts | 56° |
| 2026-04-30 20:41 | 40.70001 | -74.16384 | 13 ft | 13 kts | 200° |
| 2026-04-30 20:41 | 40.69863 | -74.16471 | 15 ft | 46 kts | 206° |
| 2026-04-30 20:41 | 40.69364 | -74.16786 | 22 ft | 112 kts | 206° |
| 2026-04-30 20:41 | 40.68483 | -74.17347 | 28 ft | 167 kts | 206° |
| 2026-04-30 20:42 | 40.67366 | -74.18013 | 574 ft | 173 kts | 207° |
| 2026-04-30 20:42 | 40.66257 | -74.18587 | 1407 ft | 178 kts | 185° |
| 2026-04-30 20:42 | 40.63872 | -74.19260 | 2303 ft | 199 kts | 241° |
| 2026-04-30 20:43 | 40.63494 | -74.21040 | 2495 ft | 216 kts | 273° |
| 2026-04-30 20:43 | 40.63997 | -74.22936 | 2787 ft | 226 kts | 309° |
| 2026-04-30 20:43 | 40.65252 | -74.24133 | 3493 ft | 227 kts | 339° |
| 2026-04-30 20:44 | 40.68377 | -74.23332 | 4634 ft | 249 kts | 37° |
| 2026-04-30 20:44 | 40.69563 | -74.21637 | 5301 ft | 251 kts | 46° |
| 2026-04-30 20:44 | 40.71952 | -74.18065 | 6218 ft | 277 kts | 47° |
| 2026-04-30 20:45 | 40.74484 | -74.14080 | 7585 ft | 288 kts | 48° |
| 2026-04-30 20:45 | 40.75784 | -74.12047 | 8320 ft | 293 kts | 47° |
| 2026-04-30 20:45 | 40.77217 | -74.09894 | 9156 ft | 296 kts | 47° |
| 2026-04-30 20:46 | 40.81255 | -74.03537 | 10537 ft | 332 kts | 49° |
| 2026-04-30 20:46 | 40.82801 | -74.01130 | 10720 ft | 353 kts | 47° |
| 2026-04-30 20:47 | 40.86089 | -73.96068 | 11819 ft | 370 kts | 47° |
| 2026-04-30 20:47 | 40.87762 | -73.93474 | 12530 ft | 373 kts | 47° |
| 2026-04-30 20:48 | 40.91172 | -73.88161 | 13856 ft | 385 kts | 47° |
| 2026-04-30 20:48 | 40.92914 | -73.85437 | 14452 ft | 391 kts | 47° |
| 2026-04-30 20:48 | 40.94685 | -73.82665 | 15059 ft | 397 kts | 47° |
| 2026-04-30 20:48 | 40.96478 | -73.79855 | 15675 ft | 403 kts | 47° |
| 2026-04-30 20:49 | 40.98195 | -73.77161 | 16246 ft | 408 kts | 47° |
| 2026-04-30 20:49 | 41.00038 | -73.74266 | 16837 ft | 414 kts | 48° |
| 2026-04-30 20:49 | 41.01910 | -73.71324 | 17434 ft | 420 kts | 48° |
| 2026-04-30 20:50 | 41.05723 | -73.65320 | 18584 ft | 431 kts | 48° |
| 2026-04-30 20:50 | 41.07657 | -73.62271 | 19140 ft | 434 kts | 49° |
| 2026-04-30 20:50 | 41.09607 | -73.59192 | 19734 ft | 437 kts | 49° |
| 2026-04-30 20:50 | 41.11571 | -73.56089 | 20311 ft | 442 kts | 49° |
| 2026-04-30 20:51 | 41.13486 | -73.53061 | 20866 ft | 446 kts | 49° |
| 2026-04-30 20:51 | 41.17509 | -73.46689 | 22053 ft | 454 kts | 49° |
| 2026-04-30 20:51 | 41.19544 | -73.43461 | 22588 ft | 458 kts | 49° |
| 2026-04-30 20:52 | 41.21599 | -73.40198 | 23152 ft | 462 kts | 49° |
| 2026-04-30 20:52 | 41.23663 | -73.36916 | 23618 ft | 465 kts | 49° |
| 2026-04-30 20:52 | 41.27835 | -73.30273 | 24455 ft | 471 kts | 49° |
| 2026-04-30 20:53 | 41.29940 | -73.26915 | 24844 ft | 474 kts | 49° |
| 2026-04-30 20:53 | 41.32057 | -73.23535 | 25237 ft | 477 kts | 49° |
| 2026-04-30 20:53 | 41.34188 | -73.20129 | 25647 ft | 480 kts | 49° |
| 2026-04-30 20:54 | 41.38447 | -73.13217 | 26473 ft | 486 kts | 53° |
| 2026-04-30 20:54 | 41.40289 | -73.09437 | 26919 ft | 488 kts | 59° |
| 2026-04-30 20:54 | 41.42000 | -73.05524 | 27296 ft | 490 kts | 60° |
| 2026-04-30 20:55 | 41.45390 | -72.97566 | 27970 ft | 497 kts | 60° |
| 2026-04-30 20:55 | 41.47115 | -72.93558 | 28276 ft | 500 kts | 59° |
| 2026-04-30 20:55 | 41.48864 | -72.89542 | 28626 ft | 502 kts | 59° |
| 2026-04-30 20:56 | 41.51806 | -72.82834 | 29174 ft | 506 kts | 59° |
| 2026-04-30 20:56 | 41.53592 | -72.78770 | 29492 ft | 509 kts | 59° |
| 2026-04-30 20:56 | 41.57181 | -72.70582 | 30173 ft | 511 kts | 59° |
| 2026-04-30 20:57 | 41.58971 | -72.66482 | 30581 ft | 510 kts | 59° |
| 2026-04-30 20:57 | 41.60750 | -72.62401 | 31000 ft | 508 kts | 59° |
| 2026-04-30 20:57 | 41.62525 | -72.58327 | 31356 ft | 507 kts | 59° |
| 2026-04-30 20:58 | 41.66097 | -72.50188 | 31996 ft | 508 kts | 58° |
| 2026-04-30 20:58 | 41.67919 | -72.46149 | 32434 ft | 506 kts | 58° |
| 2026-04-30 20:58 | 41.69740 | -72.42137 | 32813 ft | 505 kts | 58° |
| 2026-04-30 20:58 | 41.71572 | -72.38096 | 32788 ft | 510 kts | 59° |
| 2026-04-30 20:59 | 41.77029 | -72.25967 | 32788 ft | 501 kts | 59° |
| 2026-04-30 21:00 | 41.84220 | -72.09850 | 32804 ft | 507 kts | 59° |
| 2026-04-30 21:01 | 41.89643 | -71.97643 | 32808 ft | 508 kts | 59° |
| 2026-04-30 21:02 | 41.95447 | -71.85825 | 32807 ft | 503 kts | 45° |
| 2026-04-30 21:02 | 42.00769 | -71.79869 | 32800 ft | 496 kts | 28° |
| 2026-04-30 21:03 | 42.06686 | -71.75123 | 32793 ft | 494 kts | 27° |
| 2026-04-30 21:03 | 42.12593 | -71.70414 | 32791 ft | 493 kts | 27° |
| 2026-04-30 21:04 | 42.18464 | -71.65650 | 32810 ft | 492 kts | 28° |
| 2026-04-30 21:04 | 42.27226 | -71.58453 | 32789 ft | 491 kts | 28° |
| 2026-04-30 21:05 | 42.33050 | -71.53652 | 32799 ft | 490 kts | 28° |
| 2026-04-30 21:05 | 42.38873 | -71.48844 | 32782 ft | 490 kts | 29° |
| 2026-04-30 21:06 | 42.44692 | -71.44030 | 32782 ft | 490 kts | 29° |
| 2026-04-30 21:06 | 42.50508 | -71.39209 | 32796 ft | 490 kts | 29° |
| 2026-04-30 21:07 | 42.56286 | -71.34409 | 32787 ft | 491 kts | 29° |
| 2026-04-30 21:07 | 42.62105 | -71.29563 | 32779 ft | 491 kts | 30° |
| 2026-04-30 21:08 | 42.67920 | -71.24710 | 32814 ft | 490 kts | 30° |
| 2026-04-30 21:08 | 42.73542 | -71.20008 | 32791 ft | 490 kts | 30° |
| 2026-04-30 21:09 | 42.79347 | -71.15141 | 32799 ft | 489 kts | 30° |
| 2026-04-30 21:09 | 42.85142 | -71.10274 | 32819 ft | 489 kts | 30° |
| 2026-04-30 21:10 | 42.90744 | -71.05557 | 32793 ft | 488 kts | 30° |
| 2026-04-30 21:10 | 42.96507 | -71.00694 | 32780 ft | 487 kts | 30° |
| 2026-04-30 21:11 | 43.02158 | -70.95915 | 32779 ft | 486 kts | 31° |
| 2026-04-30 21:11 | 43.07708 | -70.91212 | 32765 ft | 486 kts | 31° |
| 2026-04-30 21:12 | 43.13143 | -70.86595 | 32752 ft | 484 kts | 31° |
| 2026-04-30 21:12 | 43.18856 | -70.81732 | 32765 ft | 483 kts | 31° |
| 2026-04-30 21:13 | 43.24452 | -70.76958 | 32780 ft | 482 kts | 31° |
| 2026-04-30 21:13 | 43.30120 | -70.72111 | 32799 ft | 482 kts | 31° |
| 2026-04-30 21:14 | 43.35534 | -70.67472 | 32806 ft | 481 kts | 31° |
| 2026-04-30 21:14 | 43.41214 | -70.62594 | 32793 ft | 481 kts | 32° |
| 2026-04-30 21:15 | 43.46285 | -70.57124 | 32812 ft | 481 kts | 42° |
| 2026-04-30 21:15 | 43.51187 | -70.50841 | 32734 ft | 482 kts | 44° |
| 2026-04-30 21:16 | 43.53634 | -70.47679 | 32338 ft | 480 kts | 43° |
| 2026-04-30 21:16 | 43.56006 | -70.44635 | 31922 ft | 474 kts | 43° |
| 2026-04-30 21:16 | 43.58174 | -70.41873 | 31552 ft | 469 kts | 43° |
| 2026-04-30 21:16 | 43.60412 | -70.39036 | 31139 ft | 466 kts | 43° |
| 2026-04-30 21:17 | 43.62602 | -70.36266 | 30743 ft | 462 kts | 43° |
| 2026-04-30 21:17 | 43.64892 | -70.33374 | 30329 ft | 459 kts | 43° |
| 2026-04-30 21:17 | 43.67227 | -70.30425 | 29887 ft | 456 kts | 43° |
| 2026-04-30 21:17 | 43.69528 | -70.27516 | 29400 ft | 452 kts | 43° |
| 2026-04-30 21:18 | 43.71643 | -70.24838 | 28956 ft | 448 kts | 43° |
| 2026-04-30 21:18 | 43.73843 | -70.22051 | 28548 ft | 443 kts | 43° |
| 2026-04-30 21:18 | 43.75985 | -70.19331 | 28146 ft | 439 kts | 43° |
| 2026-04-30 21:18 | 43.78192 | -70.16528 | 27702 ft | 435 kts | 43° |
| 2026-04-30 21:19 | 43.80358 | -70.13771 | 27315 ft | 431 kts | 43° |
| 2026-04-30 21:19 | 43.82559 | -70.10968 | 26877 ft | 428 kts | 44° |
| 2026-04-30 21:19 | 43.84734 | -70.08173 | 26454 ft | 425 kts | 44° |
| 2026-04-30 21:19 | 43.86894 | -70.05399 | 26034 ft | 422 kts | 44° |
| 2026-04-30 21:20 | 43.89046 | -70.02655 | 25615 ft | 419 kts | 44° |
| 2026-04-30 21:20 | 43.91190 | -69.99924 | 25199 ft | 417 kts | 44° |
| 2026-04-30 21:20 | 43.93319 | -69.97209 | 24807 ft | 415 kts | 44° |
| 2026-04-30 21:20 | 43.95435 | -69.94504 | 24384 ft | 415 kts | 44° |
| 2026-04-30 21:21 | 43.97544 | -69.91801 | 23967 ft | 414 kts | 44° |
| 2026-04-30 21:21 | 43.99600 | -69.89137 | 23540 ft | 413 kts | 45° |
| 2026-04-30 21:21 | 44.03576 | -69.83953 | 22664 ft | 408 kts | 45° |
| 2026-04-30 21:22 | 44.05423 | -69.81598 | 22291 ft | 406 kts | 45° |
| 2026-04-30 21:22 | 44.11139 | -69.74285 | 21121 ft | 400 kts | 45° |
| 2026-04-30 21:23 | 44.13171 | -69.71668 | 20728 ft | 397 kts | 45° |
| 2026-04-30 21:23 | 44.15187 | -69.69065 | 20315 ft | 394 kts | 45° |
| 2026-04-30 21:23 | 44.19170 | -69.63906 | 19532 ft | 389 kts | 46° |
| 2026-04-30 21:24 | 44.20977 | -69.61560 | 19176 ft | 387 kts | 46° |
| 2026-04-30 21:24 | 44.22873 | -69.59097 | 18796 ft | 386 kts | 46° |
| 2026-04-30 21:24 | 44.24801 | -69.56590 | 18420 ft | 385 kts | 46° |
| 2026-04-30 21:24 | 44.26754 | -69.54049 | 17995 ft | 384 kts | 46° |
| 2026-04-30 21:25 | 44.30500 | -69.49167 | 17189 ft | 380 kts | 46° |
| 2026-04-30 21:25 | 44.32358 | -69.46746 | 16956 ft | 374 kts | 46° |
| 2026-04-30 21:25 | 44.34188 | -69.44357 | 16580 ft | 373 kts | 46° |
| 2026-04-30 21:26 | 44.37732 | -69.39721 | 15878 ft | 369 kts | 46° |
| 2026-04-30 21:26 | 44.39474 | -69.37440 | 15526 ft | 368 kts | 46° |
| 2026-04-30 21:27 | 44.43077 | -69.32716 | 14788 ft | 365 kts | 46° |
| 2026-04-30 21:27 | 44.44872 | -69.30360 | 14394 ft | 365 kts | 46° |
| 2026-04-30 21:27 | 44.46697 | -69.27961 | 14038 ft | 364 kts | 46° |
| 2026-04-30 21:28 | 44.50029 | -69.23560 | 13340 ft | 362 kts | 46° |
| 2026-04-30 21:28 | 44.51684 | -69.21371 | 12982 ft | 360 kts | 47° |
| 2026-04-30 21:28 | 44.55111 | -69.16856 | 12213 ft | 357 kts | 46° |
| 2026-04-30 21:29 | 44.56860 | -69.14506 | 11876 ft | 352 kts | 47° |
| 2026-04-30 21:29 | 44.62033 | -69.07730 | 11356 ft | 317 kts | 47° |
| 2026-04-30 21:30 | 44.65085 | -69.03684 | 11190 ft | 286 kts | 47° |
| 2026-04-30 21:31 | 44.68763 | -68.97918 | 10433 ft | 252 kts | 85° |
| 2026-04-30 21:31 | 44.67896 | -68.93650 | 9733 ft | 226 kts | 133° |
| 2026-04-30 21:32 | 44.65918 | -68.90268 | 9032 ft | 222 kts | 133° |
| 2026-04-30 21:32 | 44.64995 | -68.88651 | 8589 ft | 226 kts | 135° |
| 2026-04-30 21:32 | 44.63980 | -68.86998 | 8279 ft | 223 kts | 135° |
| 2026-04-30 21:32 | 44.62988 | -68.85346 | 7965 ft | 220 kts | 135° |
| 2026-04-30 21:33 | 44.61995 | -68.83720 | 7643 ft | 218 kts | 134° |
| 2026-04-30 21:33 | 44.59930 | -68.80304 | 6444 ft | 239 kts | 136° |
| 2026-04-30 21:33 | 44.58919 | -68.78547 | 6387 ft | 225 kts | 132° |
| 2026-04-30 21:34 | 44.57931 | -68.76946 | 6272 ft | 211 kts | 135° |
| 2026-04-30 21:34 | 44.56090 | -68.73804 | 5745 ft | 202 kts | 136° |
| 2026-04-30 21:34 | 44.55162 | -68.72261 | 5313 ft | 207 kts | 135° |
| 2026-04-30 21:35 | 44.54241 | -68.70754 | 4886 ft | 209 kts | 134° |
| 2026-04-30 21:35 | 44.53253 | -68.69197 | 4061 ft | 228 kts | 136° |
| 2026-04-30 21:35 | 44.52223 | -68.67526 | 3832 ft | 222 kts | 134° |
| 2026-04-30 21:35 | 44.51298 | -68.65860 | 3746 ft | 215 kts | 123° |
| 2026-04-30 21:36 | 44.50997 | -68.64012 | 3674 ft | 214 kts | 92° |
| 2026-04-30 21:36 | 44.51518 | -68.62091 | 3550 ft | 216 kts | 55° |
| 2026-04-30 21:37 | 44.54626 | -68.58692 | 3028 ft | 210 kts | 46° |
| 2026-04-30 21:37 | 44.55833 | -68.57532 | 2992 ft | 211 kts | 36° |
| 2026-04-30 21:37 | 44.57294 | -68.57096 | 2984 ft | 224 kts | 357° |
| 2026-04-30 21:37 | 44.58823 | -68.57659 | 3009 ft | 230 kts | 344° |
| 2026-04-30 21:38 | 44.60361 | -68.58324 | 2976 ft | 230 kts | 344° |
| 2026-04-30 21:38 | 44.61881 | -68.58994 | 2989 ft | 229 kts | 344° |
| 2026-04-30 21:38 | 44.63397 | -68.59677 | 2997 ft | 229 kts | 345° |
| 2026-04-30 21:38 | 44.64912 | -68.60382 | 3030 ft | 230 kts | 339° |
| 2026-04-30 21:39 | 44.66172 | -68.61597 | 3011 ft | 224 kts | 315° |
| 2026-04-30 21:39 | 44.67185 | -68.63061 | 3002 ft | 220 kts | 312° |
| 2026-04-30 21:39 | 44.68193 | -68.64562 | 2954 ft | 208 kts | 312° |
| 2026-04-30 21:39 | 44.69182 | -68.66009 | 2948 ft | 203 kts | 312° |
| 2026-04-30 21:40 | 44.70173 | -68.67458 | 2899 ft | 212 kts | 310° |
| 2026-04-30 21:40 | 44.71211 | -68.68980 | 2616 ft | 216 kts | 311° |
| 2026-04-30 21:40 | 44.72240 | -68.70472 | 2362 ft | 211 kts | 312° |
| 2026-04-30 21:40 | 44.73244 | -68.71933 | 2071 ft | 204 kts | 315° |
| 2026-04-30 21:41 | 44.74203 | -68.73321 | 1771 ft | 194 kts | 316° |
| 2026-04-30 21:41 | 44.75093 | -68.74565 | 1565 ft | 181 kts | 313° |
| 2026-04-30 21:41 | 44.75939 | -68.75842 | 1300 ft | 178 kts | 313° |
| 2026-04-30 21:41 | 44.76774 | -68.77072 | 1039 ft | 169 kts | 315° |
| 2026-04-30 21:42 | 44.77598 | -68.78215 | 819 ft | 163 kts | 313° |
| 2026-04-30 21:42 | 44.78356 | -68.79354 | 576 ft | 156 kts | 314° |
| 2026-04-30 21:42 | 44.79100 | -68.80434 | 377 ft | 152 kts | 314° |
| 2026-04-30 21:42 | 44.79827 | -68.81486 | 173 ft | 143 kts | 314° |
| 2026-04-30 21:43 | 44.80424 | -68.82349 | 175 ft | 95 kts | 314° |
| 2026-04-30 21:43 | 44.80753 | -68.82822 | 181 ft | 52 kts | 314° |
| 2026-04-30 21:43 | 44.80944 | -68.83100 | 183 ft | 33 kts | 314° |
| 2026-04-30 21:43 | 44.81074 | -68.83287 | 184 ft | 16 kts | 314° |
| 2026-04-30 21:44 | 44.81159 | -68.83315 | 182 ft | 13 kts | 32° |
| 2026-04-30 21:44 | 44.81224 | -68.83227 | 184 ft | 13 kts | 44° |
| 2026-04-30 21:44 | 44.81287 | -68.83142 | 189 ft | 12 kts | 43° |
| 2026-04-30 21:44 | 44.81313 | -68.83037 | 184 ft | 12 kts | 114° |
| 2026-04-30 21:45 | 44.81256 | -68.82952 | 183 ft | 12 kts | 134° |
| 2026-04-30 21:45 | 44.81199 | -68.82870 | 182 ft | 12 kts | 134° |
| 2026-04-30 21:45 | 44.81144 | -68.82789 | 181 ft | 11 kts | 134° |
| 2026-04-30 21:45 | 44.81090 | -68.82711 | 181 ft | 11 kts | 134° |
| 2026-04-30 21:46 | 44.81038 | -68.82636 | 180 ft | 11 kts | 134° |
| 2026-04-30 21:46 | 44.80987 | -68.82563 | 179 ft | 10 kts | 134° |
| 2026-04-30 21:46 | 44.80938 | -68.82492 | 179 ft | 10 kts | 134° |
| 2026-04-30 21:46 | 44.80890 | -68.82421 | 178 ft | 10 kts | 133° |
| 2026-04-30 21:47 | 44.80842 | -68.82352 | 177 ft | 10 kts | 135° |
| 2026-04-30 21:47 | 44.80800 | -68.82281 | 177 ft | 9 kts | 105° |
| 2026-04-30 21:47 | 44.80836 | -68.82212 | 177 ft | 9 kts | 45° |
| 2026-04-30 21:47 | 44.80837 | -68.82130 | 176 ft | 9 kts | 122° |
| 2026-04-30 21:48 | 44.80798 | -68.82064 | 176 ft | 9 kts | 130° |
| 2026-04-30 21:48 | 44.80760 | -68.82000 | 175 ft | 8 kts | 130° |
| 2026-04-30 21:48 | 44.80723 | -68.81937 | 175 ft | 8 kts | 123° |
| 2026-04-30 21:48 | 44.80720 | -68.81861 | 174 ft | 8 kts | 77° |
| 2026-04-30 21:49 | 44.80721 | -68.81785 | 174 ft | 8 kts | 91° |
| 2026-04-30 21:49 | 44.80730 | -68.81727 | 174 ft | 6 kts | 55° |
| 2026-04-30 21:49 | 44.80750 | -68.81696 | 174 ft | 1 kts | 45° |